sensor_id;sensor_type;location;lat;lon;timestamp;temperature;humidity
30473;DHT22;17263;48.160;11.452;2024-03-06T00:01:59;6.70;99.90
30473;DHT22;17263;48.160;11.452;2024-03-06T00:04:25;6.70;99.90
30473;DHT22;17263;48.160;11.452;2024-03-06T00:06:51;6.60;99.90
30473;DHT22;17263;48.160;11.452;2024-03-06T00:09:18;6.60;99.90
30473;DHT22;17263;48.160;11.452;2024-03-06T00:11:44;6.60;99.90
30473;DHT22;17263;48.160;11.452;2024-03-06T00:14:10;6.60;99.90
30473;DHT22;17263;48.160;11.452;2024-03-06T00:16:38;6.70;99.90
30473;DHT22;17263;48.160;11.452;2024-03-06T00:19:04;6.70;99.90
30473;DHT22;17263;48.160;11.452;2024-03-06T00:21:30;6.70;99.90
30473;DHT22;17263;48.160;11.452;2024-03-06T00:23:56;6.70;99.90
30473;DHT22;17263;48.160;11.452;2024-03-06T00:26:22;6.60;99.90
30473;DHT22;17263;48.160;11.452;2024-03-06T00:28:48;6.50;99.90
30473;DHT22;17263;48.160;11.452;2024-03-06T00:31:14;6.50;99.90
30473;DHT22;17263;48.160;11.452;2024-03-06T00:33:40;6.60;99.90
30473;DHT22;17263;48.160;11.452;2024-03-06T00:36:07;6.60;99.90
30473;DHT22;17263;48.160;11.452;2024-03-06T00:38:33;6.70;99.90
30473;DHT22;17263;48.160;11.452;2024-03-06T00:40:59;6.70;99.90
30473;DHT22;17263;48.160;11.452;2024-03-06T00:43:25;6.60;99.90
30473;DHT22;17263;48.160;11.452;2024-03-06T00:45:51;6.60;99.90
30473;DHT22;17263;48.160;11.452;2024-03-06T00:48:17;6.60;99.90
30473;DHT22;17263;48.160;11.452;2024-03-06T00:50:46;6.60;99.90
30473;DHT22;17263;48.160;11.452;2024-03-06T00:53:12;6.60;99.90
30473;DHT22;17263;48.160;11.452;2024-03-06T00:55:38;6.60;99.90
30473;DHT22;17263;48.160;11.452;2024-03-06T00:58:04;6.60;99.90
30473;DHT22;17263;48.160;11.452;2024-03-06T01:00:32;6.50;99.90
30473;DHT22;17263;48.160;11.452;2024-03-06T01:02:58;6.50;99.90
30473;DHT22;17263;48.160;11.452;2024-03-06T01:05:24;6.50;99.90
30473;DHT22;17263;48.160;11.452;2024-03-06T01:07:50;6.50;99.90
30473;DHT22;17263;48.160;11.452;2024-03-06T01:10:16;6.50;99.90
30473;DHT22;17263;48.160;11.452;2024-03-06T01:12:42;6.50;99.90
30473;DHT22;17263;48.160;11.452;2024-03-06T01:15:11;6.50;99.90
30473;DHT22;17263;48.160;11.452;2024-03-06T01:17:37;6.50;99.90
30473;DHT22;17263;48.160;11.452;2024-03-06T01:20:04;6.50;99.90
30473;DHT22;17263;48.160;11.452;2024-03-06T01:22:33;6.50;99.90
30473;DHT22;17263;48.160;11.452;2024-03-06T01:24:59;6.60;99.90
30473;DHT22;17263;48.160;11.452;2024-03-06T01:27:26;6.50;99.90
30473;DHT22;17263;48.160;11.452;2024-03-06T01:29:52;6.50;99.90
30473;DHT22;17263;48.160;11.452;2024-03-06T01:32:19;6.50;99.90
30473;DHT22;17263;48.160;11.452;2024-03-06T01:34:45;6.60;99.90
30473;DHT22;17263;48.160;11.452;2024-03-06T01:37:11;6.60;99.90
30473;DHT22;17263;48.160;11.452;2024-03-06T01:39:37;6.60;99.90
30473;DHT22;17263;48.160;11.452;2024-03-06T01:42:03;6.60;99.90
30473;DHT22;17263;48.160;11.452;2024-03-06T01:44:29;6.60;99.90
30473;DHT22;17263;48.160;11.452;2024-03-06T01:46:55;6.60;99.90
30473;DHT22;17263;48.160;11.452;2024-03-06T01:49:22;6.60;99.90
30473;DHT22;17263;48.160;11.452;2024-03-06T01:51:51;6.50;99.90
30473;DHT22;17263;48.160;11.452;2024-03-06T01:54:17;6.50;99.90
30473;DHT22;17263;48.160;11.452;2024-03-06T01:56:45;6.50;99.90
30473;DHT22;17263;48.160;11.452;2024-03-06T01:59:13;6.50;99.90
30473;DHT22;17263;48.160;11.452;2024-03-06T02:01:39;6.50;99.90
30473;DHT22;17263;48.160;11.452;2024-03-06T02:04:07;6.50;99.90
30473;DHT22;17263;48.160;11.452;2024-03-06T02:06:35;6.50;99.90
30473;DHT22;17263;48.160;11.452;2024-03-06T02:09:02;6.50;99.90
30473;DHT22;17263;48.160;11.452;2024-03-06T02:11:29;6.50;99.90
30473;DHT22;17263;48.160;11.452;2024-03-06T02:13:55;6.40;99.90
30473;DHT22;17263;48.160;11.452;2024-03-06T02:16:21;6.40;99.90
30473;DHT22;17263;48.160;11.452;2024-03-06T02:18:54;6.40;99.90
30473;DHT22;17263;48.160;11.452;2024-03-06T02:21:22;6.40;99.90
30473;DHT22;17263;48.160;11.452;2024-03-06T02:23:49;6.40;99.90
30473;DHT22;17263;48.160;11.452;2024-03-06T02:26:17;6.40;99.90
30473;DHT22;17263;48.160;11.452;2024-03-06T02:28:51;6.50;99.90
30473;DHT22;17263;48.160;11.452;2024-03-06T02:31:18;6.40;99.90
30473;DHT22;17263;48.160;11.452;2024-03-06T02:33:44;6.50;99.90
30473;DHT22;17263;48.160;11.452;2024-03-06T02:36:11;6.50;99.90
30473;DHT22;17263;48.160;11.452;2024-03-06T02:38:37;6.50;99.90
30473;DHT22;17263;48.160;11.452;2024-03-06T02:41:03;6.50;99.90
30473;DHT22;17263;48.160;11.452;2024-03-06T02:43:29;6.50;99.90
30473;DHT22;17263;48.160;11.452;2024-03-06T02:45:55;6.50;99.90
30473;DHT22;17263;48.160;11.452;2024-03-06T02:48:21;6.50;99.90
30473;DHT22;17263;48.160;11.452;2024-03-06T02:50:47;6.60;99.90
30473;DHT22;17263;48.160;11.452;2024-03-06T02:53:14;6.60;99.90
30473;DHT22;17263;48.160;11.452;2024-03-06T02:55:40;6.50;99.90
30473;DHT22;17263;48.160;11.452;2024-03-06T02:58:06;6.50;99.90
30473;DHT22;17263;48.160;11.452;2024-03-06T03:00:32;6.40;99.90
30473;DHT22;17263;48.160;11.452;2024-03-06T03:02:58;6.40;99.90
30473;DHT22;17263;48.160;11.452;2024-03-06T03:05:24;6.40;99.90
30473;DHT22;17263;48.160;11.452;2024-03-06T03:07:50;6.50;99.90
30473;DHT22;17263;48.160;11.452;2024-03-06T03:10:17;6.40;99.90
30473;DHT22;17263;48.160;11.452;2024-03-06T03:12:43;6.50;99.90
30473;DHT22;17263;48.160;11.452;2024-03-06T03:15:09;6.50;99.90
30473;DHT22;17263;48.160;11.452;2024-03-06T03:17:36;6.50;99.90
30473;DHT22;17263;48.160;11.452;2024-03-06T03:20:03;6.50;99.90
30473;DHT22;17263;48.160;11.452;2024-03-06T03:22:42;6.50;99.90
30473;DHT22;17263;48.160;11.452;2024-03-06T03:25:12;6.40;99.90
30473;DHT22;17263;48.160;11.452;2024-03-06T03:27:39;6.40;99.90
30473;DHT22;17263;48.160;11.452;2024-03-06T03:30:12;6.40;99.90
30473;DHT22;17263;48.160;11.452;2024-03-06T03:32:38;6.40;99.90
30473;DHT22;17263;48.160;11.452;2024-03-06T03:35:06;6.40;99.90
30473;DHT22;17263;48.160;11.452;2024-03-06T03:37:32;6.30;99.90
30473;DHT22;17263;48.160;11.452;2024-03-06T03:39:58;6.40;99.90
30473;DHT22;17263;48.160;11.452;2024-03-06T03:42:24;6.40;99.90
30473;DHT22;17263;48.160;11.452;2024-03-06T03:44:50;6.40;99.90
30473;DHT22;17263;48.160;11.452;2024-03-06T03:47:16;6.30;99.90
30473;DHT22;17263;48.160;11.452;2024-03-06T03:49:42;6.30;99.90
30473;DHT22;17263;48.160;11.452;2024-03-06T03:52:08;6.30;99.90
30473;DHT22;17263;48.160;11.452;2024-03-06T03:54:35;6.30;99.90
30473;DHT22;17263;48.160;11.452;2024-03-06T03:57:01;6.30;99.90
30473;DHT22;17263;48.160;11.452;2024-03-06T03:59:27;6.30;99.90
30473;DHT22;17263;48.160;11.452;2024-03-06T04:01:53;6.30;99.90
30473;DHT22;17263;48.160;11.452;2024-03-06T04:04:19;6.20;99.90
30473;DHT22;17263;48.160;11.452;2024-03-06T04:06:46;6.20;99.90
30473;DHT22;17263;48.160;11.452;2024-03-06T04:09:12;6.20;99.90
30473;DHT22;17263;48.160;11.452;2024-03-06T04:11:40;6.20;99.90
30473;DHT22;17263;48.160;11.452;2024-03-06T04:14:07;6.20;99.90
30473;DHT22;17263;48.160;11.452;2024-03-06T04:16:34;6.20;99.90
30473;DHT22;17263;48.160;11.452;2024-03-06T04:19:00;6.10;99.90
30473;DHT22;17263;48.160;11.452;2024-03-06T04:21:27;6.10;99.90
30473;DHT22;17263;48.160;11.452;2024-03-06T04:23:53;6.10;99.90
30473;DHT22;17263;48.160;11.452;2024-03-06T04:26:19;6.10;99.90
30473;DHT22;17263;48.160;11.452;2024-03-06T04:28:46;6.10;99.90
30473;DHT22;17263;48.160;11.452;2024-03-06T04:31:12;6.10;99.90
30473;DHT22;17263;48.160;11.452;2024-03-06T04:33:38;6.10;99.90
30473;DHT22;17263;48.160;11.452;2024-03-06T04:36:04;6.20;99.90
30473;DHT22;17263;48.160;11.452;2024-03-06T04:38:34;6.20;99.90
30473;DHT22;17263;48.160;11.452;2024-03-06T04:41:00;6.30;99.90
30473;DHT22;17263;48.160;11.452;2024-03-06T04:43:26;6.30;99.90
30473;DHT22;17263;48.160;11.452;2024-03-06T04:45:52;6.30;99.90
30473;DHT22;17263;48.160;11.452;2024-03-06T04:48:18;6.30;99.90
30473;DHT22;17263;48.160;11.452;2024-03-06T04:50:44;6.30;99.90
30473;DHT22;17263;48.160;11.452;2024-03-06T04:53:10;6.30;99.90
30473;DHT22;17263;48.160;11.452;2024-03-06T04:55:37;6.30;99.90
30473;DHT22;17263;48.160;11.452;2024-03-06T04:58:04;6.20;99.90
30473;DHT22;17263;48.160;11.452;2024-03-06T05:00:30;6.30;99.90
30473;DHT22;17263;48.160;11.452;2024-03-06T05:02:56;6.20;99.90
30473;DHT22;17263;48.160;11.452;2024-03-06T05:05:22;6.30;99.90
30473;DHT22;17263;48.160;11.452;2024-03-06T05:07:48;6.20;99.90
30473;DHT22;17263;48.160;11.452;2024-03-06T05:10:15;6.30;99.90
30473;DHT22;17263;48.160;11.452;2024-03-06T05:12:44;6.20;99.90
30473;DHT22;17263;48.160;11.452;2024-03-06T05:15:10;6.30;99.90
30473;DHT22;17263;48.160;11.452;2024-03-06T05:17:36;6.30;99.90
30473;DHT22;17263;48.160;11.452;2024-03-06T05:20:03;6.30;99.90
30473;DHT22;17263;48.160;11.452;2024-03-06T05:22:29;6.30;99.90
30473;DHT22;17263;48.160;11.452;2024-03-06T05:24:55;6.30;99.90
30473;DHT22;17263;48.160;11.452;2024-03-06T05:27:21;6.40;99.90
30473;DHT22;17263;48.160;11.452;2024-03-06T05:29:48;6.40;99.90
30473;DHT22;17263;48.160;11.452;2024-03-06T05:32:14;6.30;99.90
30473;DHT22;17263;48.160;11.452;2024-03-06T05:34:40;6.30;99.90
30473;DHT22;17263;48.160;11.452;2024-03-06T05:37:06;6.30;99.90
30473;DHT22;17263;48.160;11.452;2024-03-06T05:39:32;6.30;99.90
30473;DHT22;17263;48.160;11.452;2024-03-06T05:42:04;6.30;99.90
30473;DHT22;17263;48.160;11.452;2024-03-06T05:44:31;6.30;99.90
30473;DHT22;17263;48.160;11.452;2024-03-06T05:47:02;6.30;99.90
30473;DHT22;17263;48.160;11.452;2024-03-06T05:49:28;6.20;99.90
30473;DHT22;17263;48.160;11.452;2024-03-06T05:51:55;6.20;99.90
30473;DHT22;17263;48.160;11.452;2024-03-06T05:54:21;6.20;99.90
30473;DHT22;17263;48.160;11.452;2024-03-06T05:56:51;6.10;99.90
30473;DHT22;17263;48.160;11.452;2024-03-06T05:59:18;6.10;99.90
30473;DHT22;17263;48.160;11.452;2024-03-06T06:01:44;6.10;99.90
30473;DHT22;17263;48.160;11.452;2024-03-06T06:04:11;6.10;99.90
30473;DHT22;17263;48.160;11.452;2024-03-06T06:06:37;6.10;99.90
30473;DHT22;17263;48.160;11.452;2024-03-06T06:09:03;6.10;99.90
30473;DHT22;17263;48.160;11.452;2024-03-06T06:11:33;6.10;99.90
30473;DHT22;17263;48.160;11.452;2024-03-06T06:13:59;6.00;99.90
30473;DHT22;17263;48.160;11.452;2024-03-06T06:16:25;6.00;99.90
30473;DHT22;17263;48.160;11.452;2024-03-06T06:18:51;6.00;99.90
30473;DHT22;17263;48.160;11.452;2024-03-06T06:21:18;6.00;99.90
30473;DHT22;17263;48.160;11.452;2024-03-06T06:23:44;6.00;99.90
30473;DHT22;17263;48.160;11.452;2024-03-06T06:26:10;5.90;99.90
30473;DHT22;17263;48.160;11.452;2024-03-06T06:28:37;5.90;99.90
30473;DHT22;17263;48.160;11.452;2024-03-06T06:31:03;5.90;99.90
30473;DHT22;17263;48.160;11.452;2024-03-06T06:33:30;5.80;99.90
30473;DHT22;17263;48.160;11.452;2024-03-06T06:35:56;5.80;99.90
30473;DHT22;17263;48.160;11.452;2024-03-06T06:38:22;5.80;99.90
30473;DHT22;17263;48.160;11.452;2024-03-06T06:40:48;5.80;99.90
30473;DHT22;17263;48.160;11.452;2024-03-06T06:43:14;5.70;99.90
30473;DHT22;17263;48.160;11.452;2024-03-06T06:45:41;5.70;99.90
30473;DHT22;17263;48.160;11.452;2024-03-06T06:48:07;5.70;99.90
30473;DHT22;17263;48.160;11.452;2024-03-06T06:50:35;5.80;99.90
30473;DHT22;17263;48.160;11.452;2024-03-06T06:53:01;5.80;99.90
30473;DHT22;17263;48.160;11.452;2024-03-06T06:55:27;5.80;99.90
30473;DHT22;17263;48.160;11.452;2024-03-06T06:57:53;5.80;99.90
30473;DHT22;17263;48.160;11.452;2024-03-06T07:00:20;5.80;99.90
30473;DHT22;17263;48.160;11.452;2024-03-06T07:02:48;5.80;99.90
30473;DHT22;17263;48.160;11.452;2024-03-06T07:05:14;5.70;99.90
30473;DHT22;17263;48.160;11.452;2024-03-06T07:07:41;5.60;99.90
30473;DHT22;17263;48.160;11.452;2024-03-06T07:10:07;5.60;99.90
30473;DHT22;17263;48.160;11.452;2024-03-06T07:12:35;5.60;99.90
30473;DHT22;17263;48.160;11.452;2024-03-06T07:15:01;5.60;99.90
30473;DHT22;17263;48.160;11.452;2024-03-06T07:17:28;5.60;99.90
30473;DHT22;17263;48.160;11.452;2024-03-06T07:19:54;5.60;99.90
30473;DHT22;17263;48.160;11.452;2024-03-06T07:22:20;5.70;99.90
30473;DHT22;17263;48.160;11.452;2024-03-06T07:24:46;5.70;99.90
30473;DHT22;17263;48.160;11.452;2024-03-06T07:27:12;5.70;99.90
30473;DHT22;17263;48.160;11.452;2024-03-06T07:29:38;5.80;99.90
30473;DHT22;17263;48.160;11.452;2024-03-06T07:32:05;5.80;99.90
30473;DHT22;17263;48.160;11.452;2024-03-06T07:34:31;5.70;99.90
30473;DHT22;17263;48.160;11.452;2024-03-06T07:36:58;5.70;99.90
30473;DHT22;17263;48.160;11.452;2024-03-06T07:39:27;5.70;99.90
30473;DHT22;17263;48.160;11.452;2024-03-06T07:41:53;5.60;99.90
30473;DHT22;17263;48.160;11.452;2024-03-06T07:44:20;5.60;99.90
30473;DHT22;17263;48.160;11.452;2024-03-06T07:46:46;5.50;99.90
30473;DHT22;17263;48.160;11.452;2024-03-06T07:49:12;5.50;99.90
30473;DHT22;17263;48.160;11.452;2024-03-06T07:51:38;5.40;99.90
30473;DHT22;17263;48.160;11.452;2024-03-06T07:54:06;5.30;99.90
30473;DHT22;17263;48.160;11.452;2024-03-06T07:56:32;5.30;99.90
30473;DHT22;17263;48.160;11.452;2024-03-06T07:59:00;5.40;99.90
30473;DHT22;17263;48.160;11.452;2024-03-06T08:01:26;5.30;99.90
30473;DHT22;17263;48.160;11.452;2024-03-06T08:03:54;5.30;99.90
30473;DHT22;17263;48.160;11.452;2024-03-06T08:06:21;5.30;99.90
30473;DHT22;17263;48.160;11.452;2024-03-06T08:08:47;5.30;99.90
30473;DHT22;17263;48.160;11.452;2024-03-06T08:11:13;5.30;99.90
30473;DHT22;17263;48.160;11.452;2024-03-06T08:13:40;5.30;99.90
30473;DHT22;17263;48.160;11.452;2024-03-06T08:16:07;5.50;99.90
30473;DHT22;17263;48.160;11.452;2024-03-06T08:18:34;5.50;99.90
30473;DHT22;17263;48.160;11.452;2024-03-06T08:21:01;5.50;99.90
30473;DHT22;17263;48.160;11.452;2024-03-06T08:23:27;5.60;99.90
30473;DHT22;17263;48.160;11.452;2024-03-06T08:25:53;5.60;99.90
30473;DHT22;17263;48.160;11.452;2024-03-06T08:28:19;5.60;99.90
30473;DHT22;17263;48.160;11.452;2024-03-06T08:30:45;5.70;99.90
30473;DHT22;17263;48.160;11.452;2024-03-06T08:33:11;5.70;99.90
30473;DHT22;17263;48.160;11.452;2024-03-06T08:35:39;5.70;99.90
30473;DHT22;17263;48.160;11.452;2024-03-06T08:38:05;5.70;99.90
30473;DHT22;17263;48.160;11.452;2024-03-06T08:40:32;5.70;99.90
30473;DHT22;17263;48.160;11.452;2024-03-06T08:42:58;5.70;99.90
30473;DHT22;17263;48.160;11.452;2024-03-06T08:45:24;5.70;99.90
30473;DHT22;17263;48.160;11.452;2024-03-06T08:47:50;5.70;99.90
30473;DHT22;17263;48.160;11.452;2024-03-06T08:50:17;5.80;99.90
30473;DHT22;17263;48.160;11.452;2024-03-06T08:52:44;5.80;99.90
30473;DHT22;17263;48.160;11.452;2024-03-06T08:55:10;5.80;99.90
30473;DHT22;17263;48.160;11.452;2024-03-06T08:57:37;5.90;99.90
30473;DHT22;17263;48.160;11.452;2024-03-06T09:00:05;5.90;99.90
30473;DHT22;17263;48.160;11.452;2024-03-06T09:02:37;5.90;99.90
30473;DHT22;17263;48.160;11.452;2024-03-06T09:05:07;5.90;99.90
30473;DHT22;17263;48.160;11.452;2024-03-06T09:07:33;5.90;99.90
30473;DHT22;17263;48.160;11.452;2024-03-06T09:10:21;5.90;99.90
30473;DHT22;17263;48.160;11.452;2024-03-06T09:12:47;5.90;99.90
30473;DHT22;17263;48.160;11.452;2024-03-06T09:15:15;5.90;99.90
30473;DHT22;17263;48.160;11.452;2024-03-06T09:17:42;5.90;99.90
30473;DHT22;17263;48.160;11.452;2024-03-06T09:20:08;5.90;99.90
30473;DHT22;17263;48.160;11.452;2024-03-06T09:22:41;5.90;99.90
30473;DHT22;17263;48.160;11.452;2024-03-06T09:25:08;5.90;99.90
30473;DHT22;17263;48.160;11.452;2024-03-06T09:27:34;5.90;99.90
30473;DHT22;17263;48.160;11.452;2024-03-06T09:30:00;5.90;99.90
30473;DHT22;17263;48.160;11.452;2024-03-06T09:32:26;5.90;99.90
30473;DHT22;17263;48.160;11.452;2024-03-06T09:34:53;5.90;99.90
30473;DHT22;17263;48.160;11.452;2024-03-06T09:37:19;5.90;99.90
30473;DHT22;17263;48.160;11.452;2024-03-06T09:39:45;5.90;99.90
30473;DHT22;17263;48.160;11.452;2024-03-06T09:42:15;5.90;99.90
30473;DHT22;17263;48.160;11.452;2024-03-06T09:44:41;5.90;99.90
30473;DHT22;17263;48.160;11.452;2024-03-06T09:47:14;6.00;99.90
30473;DHT22;17263;48.160;11.452;2024-03-06T09:49:41;6.00;99.90
30473;DHT22;17263;48.160;11.452;2024-03-06T09:52:08;6.00;99.90
30473;DHT22;17263;48.160;11.452;2024-03-06T09:54:37;6.00;99.90
30473;DHT22;17263;48.160;11.452;2024-03-06T09:57:05;6.00;99.90
30473;DHT22;17263;48.160;11.452;2024-03-06T09:59:31;6.00;99.90
30473;DHT22;17263;48.160;11.452;2024-03-06T10:01:58;6.10;99.90
30473;DHT22;17263;48.160;11.452;2024-03-06T10:04:25;6.20;99.90
30473;DHT22;17263;48.160;11.452;2024-03-06T10:06:56;6.30;99.90
30473;DHT22;17263;48.160;11.452;2024-03-06T10:09:23;6.30;99.90
30473;DHT22;17263;48.160;11.452;2024-03-06T10:11:49;6.30;99.90
30473;DHT22;17263;48.160;11.452;2024-03-06T10:14:18;6.40;99.90
30473;DHT22;17263;48.160;11.452;2024-03-06T10:16:58;6.30;99.90
30473;DHT22;17263;48.160;11.452;2024-03-06T10:19:25;6.40;99.90
30473;DHT22;17263;48.160;11.452;2024-03-06T10:21:54;6.40;99.90
30473;DHT22;17263;48.160;11.452;2024-03-06T10:24:29;6.40;99.90
30473;DHT22;17263;48.160;11.452;2024-03-06T10:26:57;6.40;99.90
30473;DHT22;17263;48.160;11.452;2024-03-06T10:29:24;6.40;99.90
30473;DHT22;17263;48.160;11.452;2024-03-06T10:31:52;6.30;99.90
30473;DHT22;17263;48.160;11.452;2024-03-06T10:34:21;6.20;99.90
30473;DHT22;17263;48.160;11.452;2024-03-06T10:36:57;6.20;99.90
30473;DHT22;17263;48.160;11.452;2024-03-06T10:39:24;6.30;99.90
30473;DHT22;17263;48.160;11.452;2024-03-06T10:41:55;6.20;99.90
30473;DHT22;17263;48.160;11.452;2024-03-06T10:44:25;6.30;99.90
30473;DHT22;17263;48.160;11.452;2024-03-06T10:47:03;6.30;99.90
30473;DHT22;17263;48.160;11.452;2024-03-06T10:49:30;6.40;99.90
30473;DHT22;17263;48.160;11.452;2024-03-06T10:52:00;6.40;99.90
30473;DHT22;17263;48.160;11.452;2024-03-06T10:54:28;6.40;99.90
30473;DHT22;17263;48.160;11.452;2024-03-06T10:56:55;6.40;99.90
30473;DHT22;17263;48.160;11.452;2024-03-06T10:59:26;6.40;99.90
30473;DHT22;17263;48.160;11.452;2024-03-06T11:01:58;6.30;99.90
30473;DHT22;17263;48.160;11.452;2024-03-06T11:04:27;6.30;99.90
30473;DHT22;17263;48.160;11.452;2024-03-06T11:07:03;6.30;99.90
30473;DHT22;17263;48.160;11.452;2024-03-06T11:09:36;6.30;99.90
30473;DHT22;17263;48.160;11.452;2024-03-06T11:12:06;6.30;99.90
30473;DHT22;17263;48.160;11.452;2024-03-06T11:14:36;6.40;99.90
30473;DHT22;17263;48.160;11.452;2024-03-06T11:17:04;6.50;99.90
30473;DHT22;17263;48.160;11.452;2024-03-06T11:19:31;6.50;99.90
30473;DHT22;17263;48.160;11.452;2024-03-06T11:21:58;6.50;99.90
30473;DHT22;17263;48.160;11.452;2024-03-06T11:24:32;6.50;99.90
30473;DHT22;17263;48.160;11.452;2024-03-06T11:27:03;6.60;99.90
30473;DHT22;17263;48.160;11.452;2024-03-06T11:30:03;6.60;99.90
30473;DHT22;17263;48.160;11.452;2024-03-06T11:32:30;6.60;99.90
30473;DHT22;17263;48.160;11.452;2024-03-06T11:34:56;6.60;99.90
30473;DHT22;17263;48.160;11.452;2024-03-06T11:37:22;6.60;99.90
30473;DHT22;17263;48.160;11.452;2024-03-06T11:39:48;6.60;99.90
30473;DHT22;17263;48.160;11.452;2024-03-06T11:42:15;6.60;99.90
30473;DHT22;17263;48.160;11.452;2024-03-06T11:44:54;6.60;99.90
30473;DHT22;17263;48.160;11.452;2024-03-06T11:47:24;6.60;99.90
30473;DHT22;17263;48.160;11.452;2024-03-06T11:49:53;6.60;99.90
30473;DHT22;17263;48.160;11.452;2024-03-06T11:52:20;6.50;99.90
30473;DHT22;17263;48.160;11.452;2024-03-06T11:54:46;6.50;99.90
30473;DHT22;17263;48.160;11.452;2024-03-06T11:57:12;6.50;99.90
30473;DHT22;17263;48.160;11.452;2024-03-06T11:59:41;6.50;99.90
30473;DHT22;17263;48.160;11.452;2024-03-06T12:02:08;6.50;99.90
30473;DHT22;17263;48.160;11.452;2024-03-06T12:04:36;6.40;99.90
30473;DHT22;17263;48.160;11.452;2024-03-06T12:07:05;6.50;99.90
30473;DHT22;17263;48.160;11.452;2024-03-06T12:09:36;6.50;99.90
30473;DHT22;17263;48.160;11.452;2024-03-06T12:12:02;6.50;99.90
30473;DHT22;17263;48.160;11.452;2024-03-06T12:14:29;6.50;99.90
30473;DHT22;17263;48.160;11.452;2024-03-06T12:16:56;6.40;99.90
30473;DHT22;17263;48.160;11.452;2024-03-06T12:19:22;6.50;99.90
30473;DHT22;17263;48.160;11.452;2024-03-06T12:21:49;6.40;99.90
30473;DHT22;17263;48.160;11.452;2024-03-06T12:24:16;6.40;99.90
30473;DHT22;17263;48.160;11.452;2024-03-06T12:26:46;6.40;99.90
30473;DHT22;17263;48.160;11.452;2024-03-06T12:29:18;6.40;99.90
30473;DHT22;17263;48.160;11.452;2024-03-06T12:31:47;6.40;99.90
30473;DHT22;17263;48.160;11.452;2024-03-06T12:34:16;6.30;99.90
30473;DHT22;17263;48.160;11.452;2024-03-06T12:36:45;6.30;99.90
30473;DHT22;17263;48.160;11.452;2024-03-06T12:39:15;6.30;99.90
30473;DHT22;17263;48.160;11.452;2024-03-06T12:41:44;6.30;99.90
30473;DHT22;17263;48.160;11.452;2024-03-06T12:44:11;6.30;99.90
30473;DHT22;17263;48.160;11.452;2024-03-06T12:46:37;6.30;99.90
30473;DHT22;17263;48.160;11.452;2024-03-06T12:49:03;6.30;99.90
30473;DHT22;17263;48.160;11.452;2024-03-06T12:51:29;6.40;99.90
30473;DHT22;17263;48.160;11.452;2024-03-06T12:53:55;6.40;99.90
30473;DHT22;17263;48.160;11.452;2024-03-06T12:56:21;6.40;99.90
30473;DHT22;17263;48.160;11.452;2024-03-06T12:58:47;6.40;99.90
30473;DHT22;17263;48.160;11.452;2024-03-06T13:01:13;6.50;99.90
30473;DHT22;17263;48.160;11.452;2024-03-06T13:03:39;6.40;99.90
30473;DHT22;17263;48.160;11.452;2024-03-06T13:06:05;6.40;99.90
30473;DHT22;17263;48.160;11.452;2024-03-06T13:08:32;6.40;99.90
30473;DHT22;17263;48.160;11.452;2024-03-06T13:10:58;6.50;99.90
30473;DHT22;17263;48.160;11.452;2024-03-06T13:13:24;6.50;99.90
30473;DHT22;17263;48.160;11.452;2024-03-06T13:15:51;6.50;99.90
30473;DHT22;17263;48.160;11.452;2024-03-06T13:18:18;6.50;99.90
30473;DHT22;17263;48.160;11.452;2024-03-06T13:20:44;6.50;99.90
30473;DHT22;17263;48.160;11.452;2024-03-06T13:23:11;6.50;99.90
30473;DHT22;17263;48.160;11.452;2024-03-06T13:25:37;6.40;99.90
30473;DHT22;17263;48.160;11.452;2024-03-06T13:28:03;6.50;99.90
30473;DHT22;17263;48.160;11.452;2024-03-06T13:30:29;6.50;99.90
30473;DHT22;17263;48.160;11.452;2024-03-06T13:32:55;6.50;99.90
30473;DHT22;17263;48.160;11.452;2024-03-06T13:35:22;6.40;99.90
30473;DHT22;17263;48.160;11.452;2024-03-06T13:37:48;6.40;99.90
30473;DHT22;17263;48.160;11.452;2024-03-06T13:40:15;6.50;99.90
30473;DHT22;17263;48.160;11.452;2024-03-06T13:42:42;6.50;99.90
30473;DHT22;17263;48.160;11.452;2024-03-06T13:45:09;6.50;99.90
30473;DHT22;17263;48.160;11.452;2024-03-06T13:47:38;6.40;99.90
30473;DHT22;17263;48.160;11.452;2024-03-06T13:50:10;6.40;99.90
30473;DHT22;17263;48.160;11.452;2024-03-06T13:52:36;6.40;99.90
30473;DHT22;17263;48.160;11.452;2024-03-06T13:55:02;6.40;99.90
30473;DHT22;17263;48.160;11.452;2024-03-06T13:57:32;6.50;99.90
30473;DHT22;17263;48.160;11.452;2024-03-06T14:00:04;6.50;99.90
30473;DHT22;17263;48.160;11.452;2024-03-06T14:02:39;6.40;99.90
30473;DHT22;17263;48.160;11.452;2024-03-06T14:05:06;6.50;99.90
30473;DHT22;17263;48.160;11.452;2024-03-06T14:07:33;6.50;99.90
30473;DHT22;17263;48.160;11.452;2024-03-06T14:09:59;6.50;99.90
30473;DHT22;17263;48.160;11.452;2024-03-06T14:12:25;6.50;99.90
30473;DHT22;17263;48.160;11.452;2024-03-06T14:14:51;6.50;99.90
30473;DHT22;17263;48.160;11.452;2024-03-06T14:17:17;6.40;99.90
30473;DHT22;17263;48.160;11.452;2024-03-06T14:19:43;6.40;99.90
30473;DHT22;17263;48.160;11.452;2024-03-06T14:22:11;6.40;99.90
30473;DHT22;17263;48.160;11.452;2024-03-06T14:24:37;6.40;99.90
30473;DHT22;17263;48.160;11.452;2024-03-06T14:27:03;6.40;99.90
30473;DHT22;17263;48.160;11.452;2024-03-06T14:29:30;6.40;99.90
30473;DHT22;17263;48.160;11.452;2024-03-06T14:31:56;6.50;99.90
30473;DHT22;17263;48.160;11.452;2024-03-06T14:34:22;6.50;99.90
30473;DHT22;17263;48.160;11.452;2024-03-06T14:36:52;6.40;99.90
30473;DHT22;17263;48.160;11.452;2024-03-06T14:39:19;6.40;99.90
30473;DHT22;17263;48.160;11.452;2024-03-06T14:41:48;6.40;99.90
30473;DHT22;17263;48.160;11.452;2024-03-06T14:44:15;6.40;99.90
30473;DHT22;17263;48.160;11.452;2024-03-06T14:46:41;6.40;99.90
30473;DHT22;17263;48.160;11.452;2024-03-06T14:49:08;6.40;99.90
30473;DHT22;17263;48.160;11.452;2024-03-06T14:51:34;6.40;99.90
30473;DHT22;17263;48.160;11.452;2024-03-06T14:54:01;6.40;99.90
30473;DHT22;17263;48.160;11.452;2024-03-06T14:56:27;6.40;99.90
30473;DHT22;17263;48.160;11.452;2024-03-06T14:58:53;6.40;99.90
30473;DHT22;17263;48.160;11.452;2024-03-06T15:01:19;6.40;99.90
30473;DHT22;17263;48.160;11.452;2024-03-06T15:03:45;6.40;99.90
30473;DHT22;17263;48.160;11.452;2024-03-06T15:06:12;6.40;99.90
30473;DHT22;17263;48.160;11.452;2024-03-06T15:08:38;6.40;99.90
30473;DHT22;17263;48.160;11.452;2024-03-06T15:11:04;6.40;99.90
30473;DHT22;17263;48.160;11.452;2024-03-06T15:13:30;6.40;99.90
30473;DHT22;17263;48.160;11.452;2024-03-06T15:15:56;6.50;99.90
30473;DHT22;17263;48.160;11.452;2024-03-06T15:18:22;6.50;99.90
30473;DHT22;17263;48.160;11.452;2024-03-06T15:20:49;6.50;99.90
30473;DHT22;17263;48.160;11.452;2024-03-06T15:23:16;6.50;99.90
30473;DHT22;17263;48.160;11.452;2024-03-06T15:25:42;6.60;99.90
30473;DHT22;17263;48.160;11.452;2024-03-06T15:28:10;6.50;99.90
30473;DHT22;17263;48.160;11.452;2024-03-06T15:30:37;6.50;99.90